sensor_id;sensor_type;location;lat;lon;timestamp;pressure;altitude;pressure_sealevel;temperature;humidity
35758;BME280;21879;50.110;18.900;2022-10-31T00:00:13;99034.61;;;15.06;64.67
35758;BME280;21879;50.110;18.900;2022-10-31T00:11:01;99040.02;;;14.91;64.37
35758;BME280;21879;50.110;18.900;2022-10-31T00:21:29;99038.69;;;14.88;64.11
35758;BME280;21879;50.110;18.900;2022-10-31T00:31:57;99039.77;;;14.79;64.02
35758;BME280;21879;50.110;18.900;2022-10-31T00:42:24;99041.13;;;14.63;63.88
35758;BME280;21879;50.110;18.900;2022-10-31T00:52:52;99041.64;;;14.55;63.60
35758;BME280;21879;50.110;18.900;2022-10-31T01:03:19;99040.38;;;14.38;63.51
35758;BME280;21879;50.110;18.900;2022-10-31T01:13:47;99042.52;;;14.35;63.62
35758;BME280;21879;50.110;18.900;2022-10-31T01:24:14;99042.84;;;14.27;63.61
35758;BME280;21879;50.110;18.900;2022-10-31T01:34:42;99043.98;;;14.22;63.54
35758;BME280;21879;50.110;18.900;2022-10-31T01:45:12;99040.52;;;14.20;63.70
35758;BME280;21879;50.110;18.900;2022-10-31T01:55:44;99042.05;;;14.14;63.84
35758;BME280;21879;50.110;18.900;2022-10-31T02:06:21;99044.80;;;13.97;64.12
35758;BME280;21879;50.110;18.900;2022-10-31T02:16:51;99035.88;;;13.78;64.74
35758;BME280;21879;50.110;18.900;2022-10-31T02:27:25;99037.69;;;13.74;65.09
35758;BME280;21879;50.110;18.900;2022-10-31T02:38:04;99043.07;;;13.66;65.00
35758;BME280;21879;50.110;18.900;2022-10-31T02:48:35;99049.65;;;13.79;65.13
35758;BME280;21879;50.110;18.900;2022-10-31T02:59:05;99054.41;;;13.78;64.57
35758;BME280;21879;50.110;18.900;2022-10-31T03:09:37;99053.86;;;13.69;64.51
35758;BME280;21879;50.110;18.900;2022-10-31T03:20:11;99057.09;;;13.53;64.23
35758;BME280;21879;50.110;18.900;2022-10-31T03:30:41;99064.98;;;13.50;64.30
35758;BME280;21879;50.110;18.900;2022-10-31T03:41:13;99066.70;;;13.40;64.20
35758;BME280;21879;50.110;18.900;2022-10-31T03:51:46;99073.79;;;13.34;64.29
35758;BME280;21879;50.110;18.900;2022-10-31T04:02:18;99080.02;;;13.38;64.03
35758;BME280;21879;50.110;18.900;2022-10-31T04:12:50;99081.23;;;13.25;63.84
35758;BME280;21879;50.110;18.900;2022-10-31T04:23:22;99085.41;;;13.12;63.80
35758;BME280;21879;50.110;18.900;2022-10-31T04:33:49;99087.42;;;13.06;63.80
35758;BME280;21879;50.110;18.900;2022-10-31T04:44:17;99094.79;;;12.89;63.47
35758;BME280;21879;50.110;18.900;2022-10-31T04:54:44;99098.13;;;12.88;63.13
35758;BME280;21879;50.110;18.900;2022-10-31T05:05:12;99096.48;;;12.81;63.09
35758;BME280;21879;50.110;18.900;2022-10-31T05:15:39;99094.24;;;12.77;63.17
35758;BME280;21879;50.110;18.900;2022-10-31T05:26:06;99097.91;;;12.63;63.07
35758;BME280;21879;50.110;18.900;2022-10-31T05:36:34;99110.42;;;12.52;63.54
35758;BME280;21879;50.110;18.900;2022-10-31T05:47:01;99124.43;;;12.45;63.61
35758;BME280;21879;50.110;18.900;2022-10-31T05:57:29;99134.42;;;12.41;63.82
35758;BME280;21879;50.110;18.900;2022-10-31T06:07:56;99139.89;;;12.35;63.99
35758;BME280;21879;50.110;18.900;2022-10-31T06:18:23;99144.52;;;12.42;64.60
35758;BME280;21879;50.110;18.900;2022-10-31T06:28:50;99151.27;;;12.48;64.55
35758;BME280;21879;50.110;18.900;2022-10-31T06:39:17;99154.70;;;12.52;64.68
35758;BME280;21879;50.110;18.900;2022-10-31T06:49:45;99161.39;;;12.64;65.23
35758;BME280;21879;50.110;18.900;2022-10-31T07:00:13;99164.10;;;12.72;65.77
35758;BME280;21879;50.110;18.900;2022-10-31T07:10:42;99169.98;;;12.75;66.28
35758;BME280;21879;50.110;18.900;2022-10-31T07:21:09;99176.45;;;12.76;66.92
35758;BME280;21879;50.110;18.900;2022-10-31T07:31:37;99190.70;;;12.81;67.44
35758;BME280;21879;50.110;18.900;2022-10-31T07:42:04;99188.08;;;12.97;67.75
35758;BME280;21879;50.110;18.900;2022-10-31T07:52:32;99191.77;;;12.95;68.13
35758;BME280;21879;50.110;18.900;2022-10-31T08:03:00;99188.64;;;13.08;68.82
35758;BME280;21879;50.110;18.900;2022-10-31T08:13:29;99180.73;;;13.29;69.36
35758;BME280;21879;50.110;18.900;2022-10-31T08:23:56;99187.60;;;13.50;69.54
35758;BME280;21879;50.110;18.900;2022-10-31T08:34:24;99188.23;;;13.81;69.77
35758;BME280;21879;50.110;18.900;2022-10-31T08:44:51;99185.34;;;14.10;69.79
35758;BME280;21879;50.110;18.900;2022-10-31T08:55:18;99191.08;;;14.33;69.34
35758;BME280;21879;50.110;18.900;2022-10-31T09:05:46;99192.53;;;14.61;69.58
35758;BME280;21879;50.110;18.900;2022-10-31T09:16:14;99198.93;;;14.94;69.44
35758;BME280;21879;50.110;18.900;2022-10-31T09:26:41;99196.08;;;15.23;69.22
35758;BME280;21879;50.110;18.900;2022-10-31T09:37:08;99195.87;;;15.50;68.89
35758;BME280;21879;50.110;18.900;2022-10-31T09:47:43;99193.50;;;15.71;68.51
35758;BME280;21879;50.110;18.900;2022-10-31T09:58:16;99190.55;;;16.00;68.35
35758;BME280;21879;50.110;18.900;2022-10-31T10:08:44;99187.10;;;16.27;67.89
35758;BME280;21879;50.110;18.900;2022-10-31T10:19:21;99187.60;;;16.56;67.43
35758;BME280;21879;50.110;18.900;2022-10-31T10:29:56;99179.50;;;16.84;67.19
35758;BME280;21879;50.110;18.900;2022-10-31T10:40:26;99171.42;;;17.09;67.01
35758;BME280;21879;50.110;18.900;2022-10-31T10:50:54;99166.70;;;17.33;66.27
35758;BME280;21879;50.110;18.900;2022-10-31T11:01:23;99162.88;;;17.55;65.72
35758;BME280;21879;50.110;18.900;2022-10-31T11:11:51;99155.91;;;17.76;65.25
35758;BME280;21879;50.110;18.900;2022-10-31T11:22:18;99143.75;;;17.93;64.69
35758;BME280;21879;50.110;18.900;2022-10-31T11:32:49;99139.79;;;18.12;64.14
35758;BME280;21879;50.110;18.900;2022-10-31T11:43:19;99127.65;;;18.28;63.25
35758;BME280;21879;50.110;18.900;2022-10-31T11:53:52;99129.91;;;18.44;62.91
35758;BME280;21879;50.110;18.900;2022-10-31T12:04:36;99122.65;;;18.55;62.42
35758;BME280;21879;50.110;18.900;2022-10-31T12:15:18;99118.21;;;18.66;62.01
35758;BME280;21879;50.110;18.900;2022-10-31T12:25:54;99109.69;;;18.74;61.13
35758;BME280;21879;50.110;18.900;2022-10-31T12:36:32;99107.40;;;18.79;60.84
35758;BME280;21879;50.110;18.900;2022-10-31T12:47:13;99095.97;;;18.83;60.41
35758;BME280;21879;50.110;18.900;2022-10-31T12:57:52;99090.38;;;18.91;60.46
35758;BME280;21879;50.110;18.900;2022-10-31T13:08:26;99085.38;;;18.93;60.42
35758;BME280;21879;50.110;18.900;2022-10-31T13:18:58;99085.03;;;18.98;60.16
35758;BME280;21879;50.110;18.900;2022-10-31T13:29:30;99083.92;;;19.09;60.09
35758;BME280;21879;50.110;18.900;2022-10-31T13:40:09;99079.36;;;19.08;60.06
35758;BME280;21879;50.110;18.900;2022-10-31T13:50:40;99084.39;;;19.10;60.07
35758;BME280;21879;50.110;18.900;2022-10-31T14:01:16;99083.48;;;19.06;59.54
35758;BME280;21879;50.110;18.900;2022-10-31T14:11:47;99078.42;;;19.00;59.28
35758;BME280;21879;50.110;18.900;2022-10-31T14:22:21;99075.92;;;19.01;59.28
35758;BME280;21879;50.110;18.900;2022-10-31T14:32:53;99066.63;;;19.09;59.46
35758;BME280;21879;50.110;18.900;2022-10-31T14:43:43;99064.95;;;19.11;59.64
35758;BME280;21879;50.110;18.900;2022-10-31T14:54:18;99059.80;;;19.08;59.77
35758;BME280;21879;50.110;18.900;2022-10-31T15:04:47;99050.60;;;18.99;59.88
35758;BME280;21879;50.110;18.900;2022-10-31T15:15:17;99052.61;;;18.93;59.75
35758;BME280;21879;50.110;18.900;2022-10-31T15:25:45;99053.65;;;18.79;60.10
35758;BME280;21879;50.110;18.900;2022-10-31T15:36:20;99051.77;;;18.72;60.37
35758;BME280;21879;50.110;18.900;2022-10-31T15:47:00;99051.48;;;18.56;60.53
35758;BME280;21879;50.110;18.900;2022-10-31T15:57:29;99056.71;;;18.33;60.48
35758;BME280;21879;50.110;18.900;2022-10-31T16:07:57;99052.64;;;18.03;60.52
35758;BME280;21879;50.110;18.900;2022-10-31T16:18:23;99063.85;;;17.73;61.26
35758;BME280;21879;50.110;18.900;2022-10-31T16:28:54;99068.52;;;17.48;61.61
35758;BME280;21879;50.110;18.900;2022-10-31T16:39:30;99068.73;;;17.23;62.14
35758;BME280;21879;50.110;18.900;2022-10-31T16:49:57;99069.59;;;17.07;62.40
35758;BME280;21879;50.110;18.900;2022-10-31T17:00:27;99069.46;;;16.81;62.41
35758;BME280;21879;50.110;18.900;2022-10-31T17:10:56;99075.91;;;16.44;62.64
35758;BME280;21879;50.110;18.900;2022-10-31T17:21:25;99078.96;;;16.22;62.49
35758;BME280;21879;50.110;18.900;2022-10-31T17:31:53;99078.17;;;15.91;62.80
35758;BME280;21879;50.110;18.900;2022-10-31T17:42:19;99076.75;;;15.63;62.75
35758;BME280;21879;50.110;18.900;2022-10-31T17:52:46;99076.16;;;15.35;63.23
35758;BME280;21879;50.110;18.900;2022-10-31T18:03:14;99080.25;;;15.17;63.46
35758;BME280;21879;50.110;18.900;2022-10-31T18:13:42;99075.64;;;14.95;63.58
35758;BME280;21879;50.110;18.900;2022-10-31T18:24:10;99078.03;;;14.90;63.50
35758;BME280;21879;50.110;18.900;2022-10-31T18:34:38;99073.44;;;14.75;63.79
35758;BME280;21879;50.110;18.900;2022-10-31T18:45:06;99068.15;;;14.68;63.63
35758;BME280;21879;50.110;18.900;2022-10-31T18:55:54;99061.09;;;14.62;63.07
35758;BME280;21879;50.110;18.900;2022-10-31T19:06:21;99061.20;;;14.28;62.80
35758;BME280;21879;50.110;18.900;2022-10-31T19:16:49;99056.48;;;13.98;62.94
35758;BME280;21879;50.110;18.900;2022-10-31T19:27:18;99049.23;;;13.83;62.88
35758;BME280;21879;50.110;18.900;2022-10-31T19:37:45;99051.76;;;13.47;63.09
35758;BME280;21879;50.110;18.900;2022-10-31T19:48:12;99057.46;;;13.13;63.98
35758;BME280;21879;50.110;18.900;2022-10-31T19:58:40;99056.97;;;13.12;64.33
35758;BME280;21879;50.110;18.900;2022-10-31T20:09:09;99051.20;;;13.12;64.44
35758;BME280;21879;50.110;18.900;2022-10-31T20:19:38;99046.71;;;13.08;63.97
35758;BME280;21879;50.110;18.900;2022-10-31T20:30:07;99043.35;;;12.86;63.74
35758;BME280;21879;50.110;18.900;2022-10-31T20:40:36;99038.86;;;12.82;63.74
35758;BME280;21879;50.110;18.900;2022-10-31T20:51:05;99028.10;;;12.78;63.95
35758;BME280;21879;50.110;18.900;2022-10-31T21:01:33;99023.95;;;12.75;63.72
35758;BME280;21879;50.110;18.900;2022-10-31T21:12:02;99021.88;;;12.60;63.56
35758;BME280;21879;50.110;18.900;2022-10-31T21:22:29;99012.44;;;12.48;63.45
35758;BME280;21879;50.110;18.900;2022-10-31T21:32:56;99008.20;;;12.38;63.09
35758;BME280;21879;50.110;18.900;2022-10-31T21:43:24;99001.98;;;12.18;62.92
35758;BME280;21879;50.110;18.900;2022-10-31T21:53:52;98997.15;;;11.96;63.30
35758;BME280;21879;50.110;18.900;2022-10-31T22:04:37;98993.77;;;11.87;63.12
35758;BME280;21879;50.110;18.900;2022-10-31T22:15:07;98979.56;;;11.74;63.14
35758;BME280;21879;50.110;18.900;2022-10-31T22:25:37;98971.42;;;11.69;63.40
35758;BME280;21879;50.110;18.900;2022-10-31T22:36:06;98964.02;;;11.60;63.78
35758;BME280;21879;50.110;18.900;2022-10-31T22:46:35;98955.16;;;11.59;64.08
35758;BME280;21879;50.110;18.900;2022-10-31T22:57:03;98943.27;;;11.63;63.96
35758;BME280;21879;50.110;18.900;2022-10-31T23:07:30;98936.81;;;11.66;63.95
35758;BME280;21879;50.110;18.900;2022-10-31T23:17:58;98943.96;;;11.64;64.10
35758;BME280;21879;50.110;18.900;2022-10-31T23:28:26;98941.08;;;11.55;64.12
35758;BME280;21879;50.110;18.900;2022-10-31T23:38:53;98940.73;;;11.37;63.75
35758;BME280;21879;50.110;18.900;2022-10-31T23:49:20;98946.55;;;11.07;63.99
35758;BME280;21879;50.110;18.900;2022-10-31T23:59:47;98944.04;;;10.93;65.09
